Maersk Visby — 9V8827 — position and weather

sailwx.info

Track history (hours):
 
Tides and Currents Weather Stations Pressure Air Temp Water Temp Dewpoint Dewpoint Depression Visibility Wind Speed Wind Dir Waves Ship Positions

Maersk Visby

Last reported at 2014-Jul-22 12:20 UTC. Time now 2014-Jul-22 19:51 UTC.
Position S 33°39' E 018°08'.

Length 180 m; draft 9.7 m.

Type: Ship (hazmat cat C). MMSI: 564979000.

Date/timePositionNaut miles runAvg speedWind from/ knotsBaromVisibWave heightAir tempDewpointWater temp
2014-Jul-22 12:20S 33°39' E 018°08'1012.9
2014-Jul-22 11:33S 33°46' E 018°16'1111.2
2014-Jul-22 10:34S 33°54' E 018°26'1 1.3
2014-Jul-22 09:33S 33°55' E 018°26'0 0.0
2014-Jul-22 08:33S 33°55' E 018°26'0 0.0
2014-Jul-22 07:33S 33°55' E 018°26'0 0.0
2014-Jul-22 06:33S 33°55' E 018°26'0 0.0
2014-Jul-22 05:33S 33°55' E 018°26'0 0.0
2014-Jul-22 04:33S 33°55' E 018°26'0 0.0
2014-Jul-22 03:33S 33°55' E 018°26'0 0.0
2014-Jul-22 02:33S 33°55' E 018°26'0 0.0
2014-Jul-22 01:33S 33°55' E 018°26'0 0.0
2014-Jul-22 00:33S 33°55' E 018°26'0 0.0
2014-Jul-21 23:33S 33°55' E 018°26'0 0.0
2014-Jul-21 22:33S 33°55' E 018°26'0 0.0
2014-Jul-21 21:33S 33°55' E 018°26'0 0.0
2014-Jul-21 20:33S 33°55' E 018°26'0 0.0
2014-Jul-21 20:18S 33°55' E 018°26'0 0.0
2014-Jul-21 19:21S 33°55' E 018°26'0 0.0
2014-Jul-21 18:33S 33°55' E 018°26'0 0.0
2014-Jul-21 17:33S 33°55' E 018°26'0 0.0
2014-Jul-21 16:33S 33°55' E 018°26'0 0.0
2014-Jul-21 15:33S 33°55' E 018°26'0 0.0
2014-Jul-21 14:33S 33°55' E 018°26'0 0.0
2014-Jul-21 13:33S 33°55' E 018°26'0 0.0
2014-Jul-21 12:33S 33°55' E 018°26'0 0.0
2014-Jul-21 11:33S 33°55' E 018°26'0 0.0
2014-Jul-21 10:27S 33°55' E 018°26'0 0.0
2014-Jul-21 09:33S 33°55' E 018°26'15 5.1
2014-Jul-21 06:33S 34°06' E 018°13'34514.2
2014-Jul-20 06:15S 34°16' E 025°10'46 1.2
2014-Jul-18 14:27S 33°51' E 025°57'22 7.2
2014-Jul-18 11:27S 33°55' E 026°23'9 6.4
2014-Jul-18 10:05S 33°52' E 026°33'9 6.0
2014-Jul-18 08:32S 33°48' E 026°43'20 6.2
2014-Jul-18 05:19S 33°39' E 027°04'5 6.5
2014-Jul-18 04:29S 33°36' E 027°10'180 9.4
2014-Jul-17 09:13S 31°35' E 029°48'1311.4
2014-Jul-17 08:06S 31°26' E 029°59'5611.6
2014-Jul-17 03:15S 30°41' E 030°37'710.4
2014-Jul-17 02:33S 30°34' E 030°42'1010.2
2014-Jul-17 01:33S 30°26' E 030°47'10 9.7
2014-Jul-17 00:33S 30°17' E 030°53'10 9.7
2014-Jul-16 23:33S 30°09' E 030°60'10 9.9
2014-Jul-16 22:33S 30°01' E 031°05'10 9.7
2014-Jul-16 21:33S 29°51' E 031°06'5 4.8
2014-Jul-16 20:33S 29°53' E 031°00'0 0.4
2014-Jul-16 19:29S 29°53' E 031°00'0 0.0
2014-Jul-16 16:23S 29°53' E 031°00'0 0.0
2014-Jul-16 15:23S 29°53' E 031°00'0 0.0
2014-Jul-16 14:05S 29°53' E 031°00'0 0.0
2014-Jul-16 12:29S 29°53' E 031°00'0 0.0
2014-Jul-16 11:23S 29°53' E 031°00'0 0.0
2014-Jul-16 10:23S 29°53' E 031°00'0 0.0
2014-Jul-16 09:29S 29°53' E 031°00'0 0.0
2014-Jul-16 08:29S 29°53' E 031°00'0 0.0
2014-Jul-16 06:23S 29°53' E 031°00'0 0.0
2014-Jul-16 05:29S 29°53' E 031°00'0 0.0
2014-Jul-16 04:29S 29°53' E 031°00'0 0.0
2014-Jul-16 03:29S 29°53' E 031°00'0 0.0
2014-Jul-16 02:17S 29°53' E 031°00'0 0.0
2014-Jul-16 01:23S 29°53' E 031°00'0 0.0
2014-Jul-16 00:11S 29°53' E 031°00'0 0.0
2014-Jul-15 23:29S 29°53' E 031°00'0 0.0
2014-Jul-15 22:17S 29°53' E 031°00'0 0.0
2014-Jul-15 21:23S 29°53' E 031°00'0 0.0
2014-Jul-15 20:29S 29°53' E 031°00'0 0.0
2014-Jul-15 19:17S 29°53' E 031°00'0 0.0
2014-Jul-15 14:11S 29°53' E 031°00'0 0.0
2014-Jul-15 11:17S 29°53' E 031°00'0 0.0
2014-Jul-15 10:17S 29°53' E 031°00'0 0.0
2014-Jul-15 09:29S 29°53' E 031°00'0 0.0
2014-Jul-15 08:17S 29°53' E 031°00'0 0.0
2014-Jul-15 07:05S 29°53' E 031°00'0 0.0
2014-Jul-15 06:05S 29°53' E 031°00'0 0.0
2014-Jul-15 05:29S 29°53' E 031°00'0 0.0
2014-Jul-15 04:29S 29°53' E 031°00'0 0.0
2014-Jul-15 03:29S 29°53' E 031°00'0 0.0
2014-Jul-15 02:11S 29°53' E 031°00'0 0.0
2014-Jul-15 01:11S 29°53' E 031°00'0 0.0
2014-Jul-15 00:23S 29°53' E 031°00'0 0.0
2014-Jul-14 23:05S 29°53' E 031°00'0 0.0
2014-Jul-14 19:05S 29°53' E 031°00'0 0.0
2014-Jul-14 17:11S 29°53' E 031°00'0 0.0
2014-Jul-14 15:23S 29°53' E 031°00'0 0.0
2014-Jul-14 14:33S 29°53' E 031°00'0 0.0
2014-Jul-14 13:33S 29°53' E 031°00'0 0.0
2014-Jul-14 12:32S 29°53' E 031°00'0 0.0
2014-Jul-14 11:33S 29°53' E 031°00'0 0.0
2014-Jul-14 10:33S 29°53' E 031°00'0 0.0
2014-Jul-14 09:33S 29°53' E 031°00'0 0.0
2014-Jul-14 08:33S 29°53' E 031°00'0 0.0
2014-Jul-14 07:33S 29°53' E 031°00'4 3.8
2014-Jul-14 06:33S 29°51' E 031°04'3 3.1
2014-Jul-14 05:33S 29°49' E 031°06'0 0.3
2014-Jul-14 04:33S 29°49' E 031°06'6 5.6
2014-Jul-14 03:33S 29°50' E 031°13'1 1.3
2014-Jul-14 02:33S 29°50' E 031°14'0 0.3
2014-Jul-14 01:33S 29°50' E 031°14'2 1.7
2014-Jul-14 00:33S 29°51' E 031°14'4 3.8
2014-Jul-13 23:33S 29°54' E 031°11'1515.4
2014-Jul-13 22:33S 30°07' E 031°01'17714.7
2014-Jul-13 10:28S 32°26' E 028°53'6615.8
2014-Jul-13 06:18S 33°11' E 027°55'1816.5
2014-Jul-13 05:14S 33°21' E 027°38'1615.7
2014-Jul-13 04:11S 33°31' E 027°23'1216.3
2014-Jul-13 03:26S 33°38' E 027°10'1516.6
2014-Jul-13 02:32S 33°45' E 026°54'1716.8
2014-Jul-13 01:32S 33°52' E 026°37'4915.9
2014-Jul-12 22:28S 33°57' E 025°38'  
Track history (hours):
 
Tides and Currents Weather Stations Pressure Air Temp Water Temp Dewpoint Dewpoint Depression Visibility Wind Speed Wind Dir Waves Ship Positions

Maersk Visby

Last reported at 2014-Jul-22 12:20 UTC. Time now 2014-Jul-22 19:51 UTC.
Position S 33°39' E 018°08'.

Length 180 m; draft 9.7 m.

Type: Ship (hazmat cat C). MMSI: 564979000.

Date/timePositionNaut miles runAvg speedWind from/ knotsBaromVisibWave heightAir tempDewpointWater temp
2014-Jul-22 12:20S 33°39' E 018°08'1012.9
2014-Jul-22 11:33S 33°46' E 018°16'1111.2
2014-Jul-22 10:34S 33°54' E 018°26'1 1.3
2014-Jul-22 09:33S 33°55' E 018°26'0 0.0
2014-Jul-22 08:33S 33°55' E 018°26'0 0.0
2014-Jul-22 07:33S 33°55' E 018°26'0 0.0
2014-Jul-22 06:33S 33°55' E 018°26'0 0.0
2014-Jul-22 05:33S 33°55' E 018°26'0 0.0
2014-Jul-22 04:33S 33°55' E 018°26'0 0.0
2014-Jul-22 03:33S 33°55' E 018°26'0 0.0
2014-Jul-22 02:33S 33°55' E 018°26'0 0.0
2014-Jul-22 01:33S 33°55' E 018°26'0 0.0
2014-Jul-22 00:33S 33°55' E 018°26'0 0.0
2014-Jul-21 23:33S 33°55' E 018°26'0 0.0
2014-Jul-21 22:33S 33°55' E 018°26'0 0.0
2014-Jul-21 21:33S 33°55' E 018°26'0 0.0
2014-Jul-21 20:33S 33°55' E 018°26'0 0.0
2014-Jul-21 20:18S 33°55' E 018°26'0 0.0
2014-Jul-21 19:21S 33°55' E 018°26'0 0.0
2014-Jul-21 18:33S 33°55' E 018°26'0 0.0
2014-Jul-21 17:33S 33°55' E 018°26'0 0.0
2014-Jul-21 16:33S 33°55' E 018°26'0 0.0
2014-Jul-21 15:33S 33°55' E 018°26'0 0.0
2014-Jul-21 14:33S 33°55' E 018°26'0 0.0
2014-Jul-21 13:33S 33°55' E 018°26'0 0.0
2014-Jul-21 12:33S 33°55' E 018°26'0 0.0
2014-Jul-21 11:33S 33°55' E 018°26'0 0.0
2014-Jul-21 10:27S 33°55' E 018°26'0 0.0
2014-Jul-21 09:33S 33°55' E 018°26'15 5.1
2014-Jul-21 06:33S 34°06' E 018°13'34514.2
2014-Jul-20 06:15S 34°16' E 025°10'46 1.2
2014-Jul-18 14:27S 33°51' E 025°57'22 7.2
2014-Jul-18 11:27S 33°55' E 026°23'9 6.4
2014-Jul-18 10:05S 33°52' E 026°33'9 6.0
2014-Jul-18 08:32S 33°48' E 026°43'20 6.2
2014-Jul-18 05:19S 33°39' E 027°04'5 6.5
2014-Jul-18 04:29S 33°36' E 027°10'180 9.4
2014-Jul-17 09:13S 31°35' E 029°48'1311.4
2014-Jul-17 08:06S 31°26' E 029°59'5611.6
2014-Jul-17 03:15S 30°41' E 030°37'710.4
2014-Jul-17 02:33S 30°34' E 030°42'1010.2
2014-Jul-17 01:33S 30°26' E 030°47'10 9.7
2014-Jul-17 00:33S 30°17' E 030°53'10 9.7
2014-Jul-16 23:33S 30°09' E 030°60'10 9.9
2014-Jul-16 22:33S 30°01' E 031°05'10 9.7
2014-Jul-16 21:33S 29°51' E 031°06'5 4.8
2014-Jul-16 20:33S 29°53' E 031°00'0 0.4
2014-Jul-16 19:29S 29°53' E 031°00'0 0.0
2014-Jul-16 16:23S 29°53' E 031°00'0 0.0
2014-Jul-16 15:23S 29°53' E 031°00'0 0.0
2014-Jul-16 14:05S 29°53' E 031°00'0 0.0
2014-Jul-16 12:29S 29°53' E 031°00'0 0.0
2014-Jul-16 11:23S 29°53' E 031°00'0 0.0
2014-Jul-16 10:23S 29°53' E 031°00'0 0.0
2014-Jul-16 09:29S 29°53' E 031°00'0 0.0
2014-Jul-16 08:29S 29°53' E 031°00'0 0.0
2014-Jul-16 06:23S 29°53' E 031°00'0 0.0
2014-Jul-16 05:29S 29°53' E 031°00'0 0.0
2014-Jul-16 04:29S 29°53' E 031°00'0 0.0
2014-Jul-16 03:29S 29°53' E 031°00'0 0.0
2014-Jul-16 02:17S 29°53' E 031°00'0 0.0
2014-Jul-16 01:23S 29°53' E 031°00'0 0.0
2014-Jul-16 00:11S 29°53' E 031°00'0 0.0
2014-Jul-15 23:29S 29°53' E 031°00'0 0.0
2014-Jul-15 22:17S 29°53' E 031°00'0 0.0
2014-Jul-15 21:23S 29°53' E 031°00'0 0.0
2014-Jul-15 20:29S 29°53' E 031°00'0 0.0
2014-Jul-15 19:17S 29°53' E 031°00'0 0.0
2014-Jul-15 14:11S 29°53' E 031°00'0 0.0
2014-Jul-15 11:17S 29°53' E 031°00'0 0.0
2014-Jul-15 10:17S 29°53' E 031°00'0 0.0
2014-Jul-15 09:29S 29°53' E 031°00'0 0.0
2014-Jul-15 08:17S 29°53' E 031°00'0 0.0
2014-Jul-15 07:05S 29°53' E 031°00'0 0.0
2014-Jul-15 06:05S 29°53' E 031°00'0 0.0
2014-Jul-15 05:29S 29°53' E 031°00'0 0.0
2014-Jul-15 04:29S 29°53' E 031°00'0 0.0
2014-Jul-15 03:29S 29°53' E 031°00'0 0.0
2014-Jul-15 02:11S 29°53' E 031°00'0 0.0
2014-Jul-15 01:11S 29°53' E 031°00'0 0.0
2014-Jul-15 00:23S 29°53' E 031°00'0 0.0
2014-Jul-14 23:05S 29°53' E 031°00'0 0.0
2014-Jul-14 19:05S 29°53' E 031°00'0 0.0
2014-Jul-14 17:11S 29°53' E 031°00'0 0.0
2014-Jul-14 15:23S 29°53' E 031°00'0 0.0
2014-Jul-14 14:33S 29°53' E 031°00'0 0.0
2014-Jul-14 13:33S 29°53' E 031°00'0 0.0
2014-Jul-14 12:32S 29°53' E 031°00'0 0.0
2014-Jul-14 11:33S 29°53' E 031°00'0 0.0
2014-Jul-14 10:33S 29°53' E 031°00'0 0.0
2014-Jul-14 09:33S 29°53' E 031°00'0 0.0
2014-Jul-14 08:33S 29°53' E 031°00'0 0.0
2014-Jul-14 07:33S 29°53' E 031°00'4 3.8
2014-Jul-14 06:33S 29°51' E 031°04'3 3.1
2014-Jul-14 05:33S 29°49' E 031°06'0 0.3
2014-Jul-14 04:33S 29°49' E 031°06'6 5.6
2014-Jul-14 03:33S 29°50' E 031°13'1 1.3
2014-Jul-14 02:33S 29°50' E 031°14'0 0.3
2014-Jul-14 01:33S 29°50' E 031°14'2 1.7
2014-Jul-14 00:33S 29°51' E 031°14'4 3.8
2014-Jul-13 23:33S 29°54' E 031°11'1515.4
2014-Jul-13 22:33S 30°07' E 031°01'17714.7
2014-Jul-13 10:28S 32°26' E 028°53'6615.8
2014-Jul-13 06:18S 33°11' E 027°55'1816.5
2014-Jul-13 05:14S 33°21' E 027°38'1615.7
2014-Jul-13 04:11S 33°31' E 027°23'1216.3
2014-Jul-13 03:26S 33°38' E 027°10'1516.6
2014-Jul-13 02:32S 33°45' E 026°54'1716.8
2014-Jul-13 01:32S 33°52' E 026°37'4915.9
2014-Jul-12 22:28S 33°57' E 025°38'  

Dump ship's entire track history